createdAt,value
2019-06-26T00:01:29.889Z,8.18
2019-06-26T00:05:31.523Z,8.20
2019-06-26T00:09:35.519Z,8.20
2019-06-26T00:13:36.416Z,7.50
2019-06-26T00:17:37.342Z,8.58
2019-06-26T00:21:38.277Z,8.65
2019-06-26T00:25:39.217Z,7.67
2019-06-26T00:29:40.122Z,7.20
2019-06-26T00:33:41.052Z,7.22
2019-06-26T00:37:42.085Z,7.12
2019-06-26T00:41:43.016Z,6.80
2019-06-26T00:45:43.954Z,7.05
2019-06-26T00:49:44.854Z,7.45
2019-06-26T00:53:45.795Z,8.70
2019-06-26T00:57:46.742Z,7.87
2019-06-26T01:01:49.670Z,7.10
2019-06-26T01:05:50.709Z,9.38
2019-06-26T01:09:51.602Z,7.37
2019-06-26T01:13:58.161Z,7.70
2019-06-26T01:17:55.385Z,7.47
2019-06-26T01:21:56.423Z,7.33
2019-06-26T01:25:57.334Z,8.03
2019-06-26T01:30:03.198Z,8.05
2019-06-26T01:34:04.443Z,7.75
2019-06-26T01:38:05.372Z,8.00
2019-06-26T01:42:06.347Z,7.42
2019-06-26T01:46:07.447Z,7.35
2019-06-26T01:50:09.150Z,7.65
2019-06-26T01:54:10.090Z,7.97
2019-06-26T01:58:11.030Z,6.90
2019-06-26T02:02:12.000Z,7.53
2019-06-26T02:06:12.898Z,8.38
2019-06-26T02:10:14.539Z,7.67
2019-06-26T02:14:29.947Z,7.15
2019-06-26T02:18:35.038Z,7.40
2019-06-26T02:22:36.036Z,7.40
2019-06-26T02:26:36.929Z,7.28
2019-06-26T02:30:37.868Z,7.35
2019-06-26T02:34:38.815Z,8.03
2019-06-26T02:38:39.805Z,7.62
2019-06-26T02:42:42.643Z,7.50
2019-06-26T02:46:43.550Z,8.68
2019-06-26T02:50:44.471Z,6.90
2019-06-26T02:54:45.423Z,7.37
2019-06-26T02:58:46.364Z,7.50
2019-06-26T03:02:47.340Z,7.80
2019-06-26T03:06:48.292Z,7.70
2019-06-26T03:10:49.269Z,7.42
2019-06-26T03:14:50.206Z,7.45
2019-06-26T03:18:51.191Z,7.45
2019-06-26T03:22:52.091Z,8.00
2019-06-26T03:26:53.028Z,7.35
2019-06-26T03:30:53.965Z,9.10
2019-06-26T03:34:54.901Z,8.10
2019-06-26T03:38:55.845Z,8.33
2019-06-26T03:42:56.801Z,8.03
2019-06-26T03:46:57.752Z,8.15
2019-06-26T03:51:00.594Z,7.42
2019-06-26T03:55:03.772Z,8.03
2019-06-26T03:59:04.712Z,8.00
2019-06-26T04:03:05.643Z,8.53
2019-06-26T04:07:06.577Z,8.05
2019-06-26T04:11:09.621Z,8.35
2019-06-26T04:15:10.750Z,7.87
2019-06-26T04:19:11.699Z,7.87
2019-06-26T04:23:12.590Z,8.68
2019-06-26T04:27:13.521Z,8.38
2019-06-26T04:31:14.555Z,8.38
2019-06-26T04:35:17.597Z,9.25
2019-06-26T04:39:20.580Z,8.43
2019-06-26T04:43:21.316Z,8.13
2019-06-26T04:47:24.254Z,8.93
2019-06-26T04:51:25.203Z,9.63
2019-06-26T04:55:27.682Z,8.40
2019-06-26T04:59:30.643Z,8.05
2019-06-26T05:03:31.449Z,8.65
2019-06-26T05:07:32.387Z,7.30
2019-06-26T05:11:33.414Z,8.18
2019-06-26T05:15:36.271Z,8.13
2019-06-26T05:19:37.164Z,7.40
2019-06-26T05:23:38.107Z,6.90
2019-06-26T05:27:39.362Z,7.03
2019-06-26T05:31:40.285Z,6.85
2019-06-26T05:35:41.219Z,7.35
2019-06-26T05:39:42.117Z,7.50
2019-06-26T05:43:46.139Z,7.30
2019-06-26T05:47:47.234Z,7.03
2019-06-26T05:51:48.148Z,7.28
2019-06-26T05:55:54.062Z,7.30
2019-06-26T05:59:54.952Z,7.67
2019-06-26T06:03:57.269Z,7.35
2019-06-26T06:07:58.218Z,7.65
2019-06-26T06:11:59.145Z,8.60
2019-06-26T06:16:00.090Z,7.95
2019-06-26T06:20:01.233Z,8.33
2019-06-26T06:24:03.819Z,8.53
2019-06-26T06:28:04.745Z,8.15
2019-06-26T06:32:05.674Z,8.63
2019-06-26T06:36:09.646Z,8.10
2019-06-26T06:40:11.454Z,8.73
2019-06-26T06:44:13.150Z,8.85
2019-06-26T06:48:14.936Z,10.40
2019-06-26T06:52:17.484Z,8.05
2019-06-26T06:56:18.413Z,8.78
2019-06-26T07:00:19.645Z,8.15
2019-06-26T07:04:20.674Z,7.97
2019-06-26T07:08:21.602Z,8.88
2019-06-26T07:12:22.846Z,7.55
2019-06-26T07:16:23.798Z,7.37
2019-06-26T07:20:27.574Z,8.18
2019-06-26T07:24:28.528Z,8.23
2019-06-26T07:28:32.561Z,7.25
2019-06-26T07:32:33.501Z,6.55
2019-06-26T07:36:34.636Z,6.95
2019-06-26T07:40:35.527Z,6.97
2019-06-26T07:44:36.463Z,6.65
2019-06-26T07:48:39.321Z,8.68
2019-06-26T07:52:40.353Z,7.10
2019-06-26T07:56:41.288Z,7.00
2019-06-26T08:00:42.229Z,6.90
2019-06-26T08:04:43.150Z,7.40
2019-06-26T08:08:45.447Z,8.63
2019-06-26T08:12:46.415Z,6.75
2019-06-26T08:16:47.349Z,6.70
2019-06-26T08:21:00.749Z,6.85
2019-06-26T08:24:51.084Z,6.90
2019-06-26T08:28:52.013Z,8.30
2019-06-26T08:32:52.935Z,6.70
2019-06-26T08:36:53.870Z,6.35
2019-06-26T08:40:54.861Z,6.75
2019-06-26T08:44:55.787Z,6.65
2019-06-26T08:48:56.814Z,5.87
2019-06-26T08:52:57.750Z,6.35
2019-06-26T08:56:58.691Z,8.53
2019-06-26T09:01:01.562Z,6.28
2019-06-26T09:05:04.615Z,6.45
2019-06-26T09:09:06.397Z,7.60
2019-06-26T09:13:07.326Z,7.75
2019-06-26T09:17:10.211Z,8.05
2019-06-26T09:21:11.143Z,6.87
2019-06-26T09:25:21.739Z,7.25
2019-06-26T09:29:15.079Z,14.45
2019-06-26T09:33:16.015Z,10.53
2019-06-26T09:37:18.894Z,6.75
2019-06-26T09:41:19.877Z,7.65
2019-06-26T09:45:20.818Z,8.73
2019-06-26T09:49:21.722Z,7.42
2019-06-26T09:53:22.663Z,7.85
2019-06-26T09:57:26.588Z,7.80
2019-06-26T10:01:27.515Z,8.00
2019-06-26T10:05:28.448Z,7.67
2019-06-26T10:09:29.441Z,7.87
2019-06-26T10:13:30.337Z,7.55
2019-06-26T10:17:32.525Z,8.18
2019-06-26T10:21:33.641Z,7.87
2019-06-26T10:25:36.148Z,7.60
2019-06-26T10:29:37.072Z,7.58
2019-06-26T10:33:38.078Z,7.33
2019-06-26T10:37:39.709Z,7.70
2019-06-26T10:41:40.836Z,8.05
2019-06-26T10:45:41.781Z,8.18
2019-06-26T10:49:42.740Z,7.65
2019-06-26T10:53:43.678Z,10.03
2019-06-26T10:57:44.631Z,6.95
2019-06-26T11:01:45.578Z,7.10
2019-06-26T11:05:46.483Z,7.00
2019-06-26T11:09:47.420Z,11.75
2019-06-26T11:13:48.339Z,6.60
2019-06-26T11:17:49.271Z,7.08
2019-06-26T11:21:50.208Z,7.45
2019-06-26T11:25:51.139Z,6.95
2019-06-26T11:29:52.070Z,6.95
2019-06-26T11:33:53.083Z,8.65
2019-06-26T11:37:54.022Z,6.97
2019-06-26T11:41:54.947Z,6.62
2019-06-26T11:45:56.004Z,5.72
2019-06-26T11:50:00.097Z,6.58
2019-06-26T11:53:59.750Z,6.15
2019-06-26T11:58:00.784Z,6.42
2019-06-26T12:02:01.714Z,8.53
2019-06-26T12:06:17.745Z,8.80
2019-06-26T12:10:07.951Z,5.75
2019-06-26T12:14:09.001Z,5.10
2019-06-26T12:18:09.950Z,8.83
2019-06-26T12:22:10.910Z,5.45
2019-06-26T12:26:11.846Z,5.72
2019-06-26T12:30:13.266Z,5.60
2019-06-26T12:34:14.205Z,7.03
2019-06-26T12:38:15.132Z,5.95
2019-06-26T12:42:16.082Z,6.10
2019-06-26T12:46:18.276Z,6.05
2019-06-26T12:50:34.767Z,5.62
2019-06-26T12:54:27.311Z,7.75
2019-06-26T12:58:29.108Z,5.87
2019-06-26T13:02:30.181Z,7.95
2019-06-26T13:06:31.120Z,6.00
2019-06-26T13:10:39.258Z,6.72
2019-06-26T13:14:34.863Z,5.83
2019-06-26T13:18:36.110Z,7.20
2019-06-26T13:22:37.131Z,6.78
2019-06-26T13:26:38.076Z,6.30
2019-06-26T13:30:39.710Z,6.67
2019-06-26T13:34:40.614Z,6.45
2019-06-26T13:38:41.545Z,5.60
2019-06-26T13:42:42.479Z,6.10
2019-06-26T13:46:43.478Z,6.97
2019-06-26T13:50:44.469Z,6.95
2019-06-26T13:54:45.354Z,5.60
2019-06-26T13:58:46.304Z,5.85
2019-06-26T14:02:47.206Z,5.55
2019-06-26T14:06:48.163Z,6.58
2019-06-26T14:10:49.090Z,5.67
2019-06-26T14:14:57.396Z,6.33
2019-06-26T14:18:53.127Z,5.65
2019-06-26T14:22:54.068Z,6.15
2019-06-26T14:26:54.993Z,5.22
2019-06-26T14:30:55.925Z,5.78
2019-06-26T14:34:56.866Z,6.42
2019-06-26T14:38:57.758Z,5.60
2019-06-26T14:42:58.699Z,4.72
2019-06-26T14:46:59.622Z,4.50
2019-06-26T14:51:00.563Z,6.70
2019-06-26T14:55:01.589Z,4.95
2019-06-26T14:59:02.778Z,6.97
2019-06-26T15:03:03.727Z,4.55
2019-06-26T15:07:04.777Z,4.97
2019-06-26T15:11:05.730Z,7.83
2019-06-26T15:15:07.850Z,5.72
2019-06-26T15:19:08.903Z,4.45
2019-06-26T15:23:09.940Z,4.37
2019-06-26T15:27:10.873Z,5.60
2019-06-26T15:31:11.901Z,4.30
2019-06-26T15:35:13.764Z,5.95
2019-06-26T15:39:14.674Z,6.47
2019-06-26T15:43:15.707Z,4.37
2019-06-26T15:47:16.634Z,5.45
2019-06-26T15:51:17.571Z,5.20
2019-06-26T15:55:18.517Z,4.50
2019-06-26T15:59:19.550Z,5.65
2019-06-26T16:03:20.504Z,4.33
2019-06-26T16:07:21.445Z,5.35
2019-06-26T16:11:22.381Z,5.90
2019-06-26T16:15:23.302Z,4.35
2019-06-26T16:19:25.552Z,4.72
2019-06-26T16:23:26.443Z,4.20
2019-06-26T16:27:27.380Z,4.83
2019-06-26T16:31:28.325Z,5.50
2019-06-26T16:35:29.265Z,4.30
2019-06-26T16:39:30.193Z,4.58
2019-06-26T16:43:31.100Z,4.67
2019-06-26T16:47:32.030Z,4.60
2019-06-26T16:51:32.977Z,4.90
2019-06-26T16:55:33.916Z,4.20
2019-06-26T16:59:34.856Z,4.58
2019-06-26T17:03:35.753Z,4.78
2019-06-26T17:07:36.680Z,3.92
2019-06-26T17:11:37.852Z,4.00
2019-06-26T17:15:38.773Z,4.85
2019-06-26T17:19:39.808Z,4.05
2019-06-26T17:23:40.803Z,4.17
2019-06-26T17:27:41.841Z,4.28
2019-06-26T17:31:42.785Z,4.12
2019-06-26T17:35:43.719Z,4.55
2019-06-26T17:39:44.665Z,4.97
2019-06-26T17:43:45.571Z,4.00
2019-06-26T17:47:46.507Z,9.10
2019-06-26T17:51:47.443Z,4.28
2019-06-26T17:55:48.385Z,4.53
2019-06-26T17:59:49.339Z,4.15
2019-06-26T18:03:50.271Z,4.85
2019-06-26T18:07:51.183Z,5.85
2019-06-26T18:11:52.126Z,3.42
2019-06-26T18:15:53.061Z,6.15
2019-06-26T18:19:54.085Z,4.70
2019-06-26T18:23:55.013Z,5.60
2019-06-26T18:27:56.301Z,3.77
2019-06-26T18:31:57.393Z,3.75
2019-06-26T18:35:58.431Z,4.30
2019-06-26T18:39:59.378Z,3.50
2019-06-26T18:44:00.304Z,3.87
2019-06-26T18:48:01.204Z,4.50
2019-06-26T18:52:02.240Z,4.05
2019-06-26T18:56:03.451Z,2.83
2019-06-26T19:00:05.930Z,2.80
2019-06-26T19:04:06.972Z,3.00
2019-06-26T19:08:07.876Z,3.08
2019-06-26T19:12:08.803Z,3.42
2019-06-26T19:16:09.742Z,2.70
2019-06-26T19:20:11.985Z,3.30
2019-06-26T19:24:12.921Z,2.60
2019-06-26T19:28:13.818Z,4.30
2019-06-26T19:32:14.746Z,2.85
2019-06-26T19:36:15.677Z,6.42
2019-06-26T19:40:16.819Z,3.55
2019-06-26T19:44:17.751Z,3.08
2019-06-26T19:48:18.661Z,5.00
2019-06-26T19:52:19.649Z,3.87
2019-06-26T19:56:20.836Z,4.80
2019-06-26T20:00:21.984Z,3.47
2019-06-26T20:04:22.919Z,5.17
2019-06-26T20:08:23.820Z,4.22
2019-06-26T20:12:24.757Z,4.67
2019-06-26T20:16:25.798Z,3.77
2019-06-26T20:20:26.731Z,3.22
2019-06-26T20:24:43.009Z,6.37
2019-06-26T20:28:30.482Z,7.80
2019-06-26T20:32:31.424Z,4.70
2019-06-26T20:36:32.432Z,5.05
2019-06-26T20:40:33.464Z,5.75
2019-06-26T20:44:34.437Z,4.15
2019-06-26T20:48:35.332Z,3.98
2019-06-26T20:52:36.497Z,5.25
2019-06-26T20:56:37.439Z,7.80
2019-06-26T21:00:38.383Z,6.40
2019-06-26T21:04:39.297Z,5.42
2019-06-26T21:08:40.228Z,4.00
2019-06-26T21:12:41.188Z,4.97
2019-06-26T21:16:42.125Z,8.20
2019-06-26T21:20:43.051Z,4.25
2019-06-26T21:24:44.019Z,6.08
2019-06-26T21:28:44.914Z,4.78
2019-06-26T21:32:45.847Z,4.70
2019-06-26T21:36:46.787Z,10.30
2019-06-26T21:40:47.727Z,5.60
2019-06-26T21:44:48.668Z,5.47
2019-06-26T21:48:49.563Z,4.95
2019-06-26T21:52:50.528Z,6.50
2019-06-26T21:56:51.622Z,6.50
2019-06-26T22:00:52.768Z,4.53
2019-06-26T22:04:53.702Z,4.92
2019-06-26T22:08:54.629Z,4.67
2019-06-26T22:12:55.547Z,5.65
2019-06-26T22:16:56.485Z,6.53
2019-06-26T22:20:57.422Z,8.10
2019-06-26T22:24:58.369Z,6.45
2019-06-26T22:28:59.275Z,4.60
2019-06-26T22:33:00.203Z,4.42
2019-06-26T22:37:01.133Z,5.35
2019-06-26T22:41:02.088Z,8.48
2019-06-26T22:45:04.429Z,3.35
2019-06-26T22:49:05.379Z,6.03
2019-06-26T22:53:06.323Z,4.97
2019-06-26T22:57:07.300Z,5.85
2019-06-26T23:01:08.337Z,4.47
2019-06-26T23:05:09.618Z,6.40
2019-06-26T23:09:10.553Z,3.80
2019-06-26T23:13:11.463Z,2.77
2019-06-26T23:17:12.400Z,7.30
2019-06-26T23:21:13.339Z,3.80
2019-06-26T23:25:14.374Z,4.85
2019-06-26T23:29:15.305Z,5.25
2019-06-26T23:33:16.202Z,6.30
2019-06-26T23:37:17.132Z,4.33
2019-06-26T23:41:18.216Z,5.70
2019-06-26T23:45:19.153Z,4.83
2019-06-26T23:49:20.075Z,5.97
2019-06-26T23:53:21.027Z,6.92
2019-06-26T23:57:21.957Z,6.58
